Airfield :
LOGIN :

Register | Disclaimer

   EN    FR    IT 

 










Legend :    VFR   Marginal VFR   IFR   Intensive IFR   Very Intensive IFR
Visi :
Ceiling :
>= 8 km
>= 3000ft
5 to 8 km
1000 to 3000 ft
1500m to 5 km
500 to 1000 ft
800 to 1500m
200 to 500 ft
< 800m
< 200 ft
Symbols :   Thunderstorms  Fog  Heavy snow  Heavy precipitations  Wind > 20 kt
SIGMETs :     Misc.  Thunderstorms  Icing  Turbulence  Mountain Waves  Volcanic Ashes






- Airport Elevation : 238 ft
- IATA code : UAB


LTAG - Incirlik AB

CURRENT METAR :
  • 290620Z 17009KT 9999 SCT035 23/12 Q1012 NOSIG

EXPIRED METARs :
  • 290550Z 18011KT 9999 SCT035 22/13 Q1012 NOSIG
  • 290520Z 19006KT 9999 FEW030 22/14 Q1012 NOSIG
  • 290450Z 18009KT 9999 FEW030 22/14 Q1012 NOSIG
  • 290420Z 19004KT 9999 FEW030 21/15 Q1012 NOSIG
  • 290350Z 19002KT 9999 FEW030 19/17 Q1012 NOSIG

TAF TAF LTAG
Valid from the 29 at 06:00 until the 30 at 06:00 UTC


290440Z 2906/3006 20015 9999 SCT030
TEMPO 2911/2914 FEW025CB BKN030
BECMG 2916/2919 VRB02KT
BECMG 2920/2923 BKN025



MET'MAP, your aeronautical weather chart ! - Copyright ORBIFLY December 2007 - Disclaimer

ORBIFLY MET'MAP TEAM :

Programming & Development : Alexandra Zaïnal
Concept & original design : Baudouin d'Aumeries
Assistance for programming : Marc-Olivier Méhu
Technical & hardware support : Manuel Goepfert

Contact : metmap@orbifly.com




SOURCES & CREDITS :

   NOAA